sensor_id;sensor_type;location;lat;lon;timestamp;P1;durP1;ratioP1;P2;durP2;ratioP2
41693;SDS011;27377;50.666;9.150;2023-03-03T00:01:30;21.13;;;13.77;;
41693;SDS011;27377;50.666;9.150;2023-03-03T00:03:57;23.30;;;14.40;;
41693;SDS011;27377;50.666;9.150;2023-03-03T00:06:23;22.93;;;14.40;;
41693;SDS011;27377;50.666;9.150;2023-03-03T00:08:54;21.55;;;14.05;;
41693;SDS011;27377;50.666;9.150;2023-03-03T00:11:20;24.77;;;15.43;;
41693;SDS011;27377;50.666;9.150;2023-03-03T00:13:47;21.20;;;14.93;;
41693;SDS011;27377;50.666;9.150;2023-03-03T00:19:01;25.27;;;16.20;;
41693;SDS011;27377;50.666;9.150;2023-03-03T00:21:29;25.05;;;16.63;;
41693;SDS011;27377;50.666;9.150;2023-03-03T00:26:47;25.30;;;16.58;;
41693;SDS011;27377;50.666;9.150;2023-03-03T00:29:27;29.38;;;19.23;;
41693;SDS011;27377;50.666;9.150;2023-03-03T00:31:55;28.80;;;18.75;;
41693;SDS011;27377;50.666;9.150;2023-03-03T00:34:36;30.95;;;19.65;;
41693;SDS011;27377;50.666;9.150;2023-03-03T00:37:10;29.77;;;19.90;;
41693;SDS011;27377;50.666;9.150;2023-03-03T00:39:53;29.05;;;19.25;;
41693;SDS011;27377;50.666;9.150;2023-03-03T00:42:25;29.45;;;19.70;;
41693;SDS011;27377;50.666;9.150;2023-03-03T00:44:56;30.63;;;20.10;;
41693;SDS011;27377;50.666;9.150;2023-03-03T00:50:10;31.25;;;20.70;;
41693;SDS011;27377;50.666;9.150;2023-03-03T00:55:53;30.33;;;20.15;;
41693;SDS011;27377;50.666;9.150;2023-03-03T00:58:20;32.80;;;20.88;;
41693;SDS011;27377;50.666;9.150;2023-03-03T01:00:48;29.95;;;19.42;;
41693;SDS011;27377;50.666;9.150;2023-03-03T01:03:17;29.58;;;19.38;;
41693;SDS011;27377;50.666;9.150;2023-03-03T01:05:48;29.92;;;20.02;;
41693;SDS011;27377;50.666;9.150;2023-03-03T01:08:15;30.50;;;20.27;;
41693;SDS011;27377;50.666;9.150;2023-03-03T01:10:46;33.50;;;21.25;;
41693;SDS011;27377;50.666;9.150;2023-03-03T01:13:19;31.02;;;21.10;;
41693;SDS011;27377;50.666;9.150;2023-03-03T01:15:48;33.13;;;21.60;;
41693;SDS011;27377;50.666;9.150;2023-03-03T01:18:14;34.67;;;21.80;;
41693;SDS011;27377;50.666;9.150;2023-03-03T01:20:40;31.50;;;21.17;;
41693;SDS011;27377;50.666;9.150;2023-03-03T01:23:14;32.10;;;21.05;;
41693;SDS011;27377;50.666;9.150;2023-03-03T01:25:45;32.42;;;21.27;;
41693;SDS011;27377;50.666;9.150;2023-03-03T01:28:11;37.23;;;23.13;;
41693;SDS011;27377;50.666;9.150;2023-03-03T01:30:36;37.50;;;24.27;;
41693;SDS011;27377;50.666;9.150;2023-03-03T01:33:02;34.05;;;22.95;;
41693;SDS011;27377;50.666;9.150;2023-03-03T01:35:28;35.67;;;23.57;;
41693;SDS011;27377;50.666;9.150;2023-03-03T01:37:54;35.47;;;23.67;;
41693;SDS011;27377;50.666;9.150;2023-03-03T01:40:22;37.78;;;24.30;;
41693;SDS011;27377;50.666;9.150;2023-03-03T01:42:50;40.90;;;26.73;;
41693;SDS011;27377;50.666;9.150;2023-03-03T01:53:49;46.33;;;29.40;;
41693;SDS011;27377;50.666;9.150;2023-03-03T01:56:15;47.80;;;31.07;;
41693;SDS011;27377;50.666;9.150;2023-03-03T01:58:44;49.22;;;31.08;;
41693;SDS011;27377;50.666;9.150;2023-03-03T02:01:16;50.92;;;33.20;;
41693;SDS011;27377;50.666;9.150;2023-03-03T02:03:45;52.95;;;34.47;;
41693;SDS011;27377;50.666;9.150;2023-03-03T02:06:15;55.28;;;35.50;;
41693;SDS011;27377;50.666;9.150;2023-03-03T02:08:53;55.40;;;35.30;;
41693;SDS011;27377;50.666;9.150;2023-03-03T02:11:25;55.77;;;35.93;;
41693;SDS011;27377;50.666;9.150;2023-03-03T02:13:55;53.80;;;35.20;;
41693;SDS011;27377;50.666;9.150;2023-03-03T02:16:20;52.00;;;34.78;;
41693;SDS011;27377;50.666;9.150;2023-03-03T02:18:46;52.05;;;34.38;;
41693;SDS011;27377;50.666;9.150;2023-03-03T02:21:15;52.72;;;34.20;;
41693;SDS011;27377;50.666;9.150;2023-03-03T02:26:22;52.30;;;35.05;;
41693;SDS011;27377;50.666;9.150;2023-03-03T02:28:50;53.80;;;35.03;;
41693;SDS011;27377;50.666;9.150;2023-03-03T02:31:20;51.85;;;34.58;;
41693;SDS011;27377;50.666;9.150;2023-03-03T02:33:48;54.40;;;35.67;;
41693;SDS011;27377;50.666;9.150;2023-03-03T02:36:18;55.43;;;35.40;;
41693;SDS011;27377;50.666;9.150;2023-03-03T02:41:34;51.50;;;34.40;;
41693;SDS011;27377;50.666;9.150;2023-03-03T02:44:28;50.58;;;33.83;;
41693;SDS011;27377;50.666;9.150;2023-03-03T02:46:55;51.35;;;33.78;;
41693;SDS011;27377;50.666;9.150;2023-03-03T02:49:25;53.25;;;34.03;;
41693;SDS011;27377;50.666;9.150;2023-03-03T02:51:56;50.60;;;33.97;;
41693;SDS011;27377;50.666;9.150;2023-03-03T02:54:23;50.60;;;33.33;;
41693;SDS011;27377;50.666;9.150;2023-03-03T02:56:50;50.23;;;33.50;;
41693;SDS011;27377;50.666;9.150;2023-03-03T02:59:15;52.40;;;34.50;;
41693;SDS011;27377;50.666;9.150;2023-03-03T03:01:42;51.58;;;33.88;;
41693;SDS011;27377;50.666;9.150;2023-03-03T03:04:10;54.20;;;35.10;;
41693;SDS011;27377;50.666;9.150;2023-03-03T03:06:37;53.75;;;34.95;;
41693;SDS011;27377;50.666;9.150;2023-03-03T03:09:03;55.53;;;34.63;;
41693;SDS011;27377;50.666;9.150;2023-03-03T03:11:30;53.67;;;35.25;;
41693;SDS011;27377;50.666;9.150;2023-03-03T03:13:56;53.77;;;35.20;;
41693;SDS011;27377;50.666;9.150;2023-03-03T03:16:21;55.27;;;35.73;;
41693;SDS011;27377;50.666;9.150;2023-03-03T03:18:47;57.05;;;36.33;;
41693;SDS011;27377;50.666;9.150;2023-03-03T03:21:14;55.65;;;35.85;;
41693;SDS011;27377;50.666;9.150;2023-03-03T03:23:40;58.03;;;36.13;;
41693;SDS011;27377;50.666;9.150;2023-03-03T03:26:06;57.08;;;36.80;;
41693;SDS011;27377;50.666;9.150;2023-03-03T03:28:33;57.67;;;37.47;;
41693;SDS011;27377;50.666;9.150;2023-03-03T03:30:59;55.60;;;35.43;;
41693;SDS011;27377;50.666;9.150;2023-03-03T03:33:24;56.03;;;35.88;;
41693;SDS011;27377;50.666;9.150;2023-03-03T03:35:52;57.58;;;36.35;;
41693;SDS011;27377;50.666;9.150;2023-03-03T03:38:19;58.90;;;36.93;;
41693;SDS011;27377;50.666;9.150;2023-03-03T03:40:45;56.97;;;36.47;;
41693;SDS011;27377;50.666;9.150;2023-03-03T03:43:11;58.77;;;38.20;;
41693;SDS011;27377;50.666;9.150;2023-03-03T03:45:36;57.05;;;36.38;;
41693;SDS011;27377;50.666;9.150;2023-03-03T03:48:02;57.15;;;37.10;;
41693;SDS011;27377;50.666;9.150;2023-03-03T03:50:28;58.90;;;38.10;;
41693;SDS011;27377;50.666;9.150;2023-03-03T03:52:53;59.50;;;37.70;;
41693;SDS011;27377;50.666;9.150;2023-03-03T03:55:19;60.50;;;38.00;;
41693;SDS011;27377;50.666;9.150;2023-03-03T03:57:46;57.83;;;36.75;;
41693;SDS011;27377;50.666;9.150;2023-03-03T04:00:12;56.07;;;35.80;;
41693;SDS011;27377;50.666;9.150;2023-03-03T04:02:38;57.17;;;36.50;;
41693;SDS011;27377;50.666;9.150;2023-03-03T04:05:03;58.05;;;36.45;;
41693;SDS011;27377;50.666;9.150;2023-03-03T04:07:29;56.05;;;35.78;;
41693;SDS011;27377;50.666;9.150;2023-03-03T04:09:55;55.37;;;35.73;;
41693;SDS011;27377;50.666;9.150;2023-03-03T04:12:20;56.13;;;35.93;;
41693;SDS011;27377;50.666;9.150;2023-03-03T04:14:46;55.77;;;35.33;;
41693;SDS011;27377;50.666;9.150;2023-03-03T04:17:15;53.80;;;35.35;;
41693;SDS011;27377;50.666;9.150;2023-03-03T04:19:45;55.07;;;35.27;;
41693;SDS011;27377;50.666;9.150;2023-03-03T04:22:11;53.00;;;34.25;;
41693;SDS011;27377;50.666;9.150;2023-03-03T04:24:37;53.10;;;34.72;;
41693;SDS011;27377;50.666;9.150;2023-03-03T04:27:03;54.88;;;35.13;;
41693;SDS011;27377;50.666;9.150;2023-03-03T04:29:29;56.17;;;35.47;;
41693;SDS011;27377;50.666;9.150;2023-03-03T04:31:54;59.83;;;36.87;;
41693;SDS011;27377;50.666;9.150;2023-03-03T04:34:20;56.30;;;35.57;;
41693;SDS011;27377;50.666;9.150;2023-03-03T04:36:45;55.73;;;35.60;;
41693;SDS011;27377;50.666;9.150;2023-03-03T04:39:11;59.67;;;36.57;;
41693;SDS011;27377;50.666;9.150;2023-03-03T04:41:36;58.73;;;36.90;;
41693;SDS011;27377;50.666;9.150;2023-03-03T04:44:02;59.07;;;36.23;;
41693;SDS011;27377;50.666;9.150;2023-03-03T04:46:28;56.47;;;36.42;;
41693;SDS011;27377;50.666;9.150;2023-03-03T04:48:53;59.35;;;37.65;;
41693;SDS011;27377;50.666;9.150;2023-03-03T04:51:19;58.13;;;37.00;;
41693;SDS011;27377;50.666;9.150;2023-03-03T04:53:45;60.67;;;37.40;;
41693;SDS011;27377;50.666;9.150;2023-03-03T04:56:10;59.60;;;37.30;;
41693;SDS011;27377;50.666;9.150;2023-03-03T04:58:36;62.75;;;37.30;;
41693;SDS011;27377;50.666;9.150;2023-03-03T05:01:02;61.13;;;37.08;;
41693;SDS011;27377;50.666;9.150;2023-03-03T05:03:27;61.27;;;38.20;;
41693;SDS011;27377;50.666;9.150;2023-03-03T05:05:53;61.80;;;38.13;;
41693;SDS011;27377;50.666;9.150;2023-03-03T05:08:19;61.50;;;38.05;;
41693;SDS011;27377;50.666;9.150;2023-03-03T05:10:44;62.17;;;38.92;;
41693;SDS011;27377;50.666;9.150;2023-03-03T05:13:10;64.57;;;39.75;;
41693;SDS011;27377;50.666;9.150;2023-03-03T05:15:35;65.53;;;39.70;;
41693;SDS011;27377;50.666;9.150;2023-03-03T05:18:01;63.13;;;39.27;;
41693;SDS011;27377;50.666;9.150;2023-03-03T05:20:26;61.90;;;38.90;;
41693;SDS011;27377;50.666;9.150;2023-03-03T05:22:52;62.33;;;39.33;;
41693;SDS011;27377;50.666;9.150;2023-03-03T05:25:18;64.22;;;39.42;;
41693;SDS011;27377;50.666;9.150;2023-03-03T05:27:44;62.00;;;37.85;;
41693;SDS011;27377;50.666;9.150;2023-03-03T05:30:13;62.50;;;38.57;;
41693;SDS011;27377;50.666;9.150;2023-03-03T05:32:39;59.70;;;37.87;;
41693;SDS011;27377;50.666;9.150;2023-03-03T05:35:05;61.17;;;37.83;;
41693;SDS011;27377;50.666;9.150;2023-03-03T05:37:30;61.30;;;37.90;;
41693;SDS011;27377;50.666;9.150;2023-03-03T05:39:56;61.53;;;38.03;;
41693;SDS011;27377;50.666;9.150;2023-03-03T05:42:22;60.33;;;37.90;;
41693;SDS011;27377;50.666;9.150;2023-03-03T05:44:51;57.72;;;36.38;;
41693;SDS011;27377;50.666;9.150;2023-03-03T05:47:16;58.88;;;36.88;;
41693;SDS011;27377;50.666;9.150;2023-03-03T05:49:42;57.00;;;35.70;;
41693;SDS011;27377;50.666;9.150;2023-03-03T05:52:07;55.60;;;34.73;;
41693;SDS011;27377;50.666;9.150;2023-03-03T05:54:33;55.10;;;34.83;;
41693;SDS011;27377;50.666;9.150;2023-03-03T05:56:59;55.13;;;33.45;;
41693;SDS011;27377;50.666;9.150;2023-03-03T05:59:25;54.97;;;34.55;;
41693;SDS011;27377;50.666;9.150;2023-03-03T06:01:50;55.50;;;35.37;;
41693;SDS011;27377;50.666;9.150;2023-03-03T06:04:16;53.93;;;34.40;;
41693;SDS011;27377;50.666;9.150;2023-03-03T06:06:42;55.13;;;34.38;;
41693;SDS011;27377;50.666;9.150;2023-03-03T06:09:07;55.23;;;34.67;;
41693;SDS011;27377;50.666;9.150;2023-03-03T06:11:33;53.73;;;33.70;;
41693;SDS011;27377;50.666;9.150;2023-03-03T06:13:58;55.53;;;34.77;;
41693;SDS011;27377;50.666;9.150;2023-03-03T06:16:24;54.42;;;33.88;;
41693;SDS011;27377;50.666;9.150;2023-03-03T06:18:50;53.50;;;33.10;;
41693;SDS011;27377;50.666;9.150;2023-03-03T06:21:15;53.63;;;32.53;;
41693;SDS011;27377;50.666;9.150;2023-03-03T06:23:44;51.17;;;31.88;;
41693;SDS011;27377;50.666;9.150;2023-03-03T06:26:09;51.23;;;31.93;;
41693;SDS011;27377;50.666;9.150;2023-03-03T06:28:35;53.87;;;32.93;;
41693;SDS011;27377;50.666;9.150;2023-03-03T06:31:00;53.63;;;32.10;;
41693;SDS011;27377;50.666;9.150;2023-03-03T06:33:26;53.53;;;31.87;;
41693;SDS011;27377;50.666;9.150;2023-03-03T06:35:53;54.38;;;32.25;;
41693;SDS011;27377;50.666;9.150;2023-03-03T06:38:19;50.92;;;31.63;;
41693;SDS011;27377;50.666;9.150;2023-03-03T06:40:45;50.63;;;31.73;;
41693;SDS011;27377;50.666;9.150;2023-03-03T06:43:11;52.15;;;31.67;;
41693;SDS011;27377;50.666;9.150;2023-03-03T06:45:37;49.65;;;30.70;;
41693;SDS011;27377;50.666;9.150;2023-03-03T06:48:02;50.75;;;30.50;;
41693;SDS011;27377;50.666;9.150;2023-03-03T06:50:28;50.38;;;30.50;;
41693;SDS011;27377;50.666;9.150;2023-03-03T06:53:09;50.83;;;29.85;;
41693;SDS011;27377;50.666;9.150;2023-03-03T06:55:41;50.08;;;29.42;;
41693;SDS011;27377;50.666;9.150;2023-03-03T06:58:15;50.28;;;30.25;;
41693;SDS011;27377;50.666;9.150;2023-03-03T07:00:43;47.08;;;28.67;;
41693;SDS011;27377;50.666;9.150;2023-03-03T07:03:14;46.97;;;28.65;;
41693;SDS011;27377;50.666;9.150;2023-03-03T07:05:42;48.75;;;29.80;;
41693;SDS011;27377;50.666;9.150;2023-03-03T07:08:15;47.10;;;29.25;;
41693;SDS011;27377;50.666;9.150;2023-03-03T07:10:44;46.58;;;28.63;;
41693;SDS011;27377;50.666;9.150;2023-03-03T07:13:18;48.47;;;28.88;;
41693;SDS011;27377;50.666;9.150;2023-03-03T07:15:47;47.38;;;28.27;;
41693;SDS011;27377;50.666;9.150;2023-03-03T07:18:22;43.25;;;26.40;;
41693;SDS011;27377;50.666;9.150;2023-03-03T07:21:22;43.30;;;26.85;;
41693;SDS011;27377;50.666;9.150;2023-03-03T07:23:55;41.67;;;26.45;;
41693;SDS011;27377;50.666;9.150;2023-03-03T07:26:24;42.17;;;26.10;;
41693;SDS011;27377;50.666;9.150;2023-03-03T07:28:59;41.33;;;25.30;;
41693;SDS011;27377;50.666;9.150;2023-03-03T07:31:29;41.13;;;25.63;;
41693;SDS011;27377;50.666;9.150;2023-03-03T07:33:58;41.25;;;25.42;;
41693;SDS011;27377;50.666;9.150;2023-03-03T07:36:26;40.73;;;25.43;;
41693;SDS011;27377;50.666;9.150;2023-03-03T07:39:14;39.35;;;25.15;;
41693;SDS011;27377;50.666;9.150;2023-03-03T07:41:50;40.80;;;25.17;;
41693;SDS011;27377;50.666;9.150;2023-03-03T07:44:25;39.88;;;24.60;;
41693;SDS011;27377;50.666;9.150;2023-03-03T07:47:01;39.00;;;24.13;;
41693;SDS011;27377;50.666;9.150;2023-03-03T07:49:47;38.87;;;23.87;;
41693;SDS011;27377;50.666;9.150;2023-03-03T07:54:51;36.22;;;22.98;;
41693;SDS011;27377;50.666;9.150;2023-03-03T07:57:25;34.90;;;21.98;;
41693;SDS011;27377;50.666;9.150;2023-03-03T07:59:59;32.78;;;21.35;;
41693;SDS011;27377;50.666;9.150;2023-03-03T08:02:56;32.08;;;20.60;;
41693;SDS011;27377;50.666;9.150;2023-03-03T08:05:36;32.55;;;20.50;;
41693;SDS011;27377;50.666;9.150;2023-03-03T08:08:14;34.67;;;21.00;;
41693;SDS011;27377;50.666;9.150;2023-03-03T08:10:54;32.57;;;19.83;;
41693;SDS011;27377;50.666;9.150;2023-03-03T08:13:27;32.80;;;20.70;;
41693;SDS011;27377;50.666;9.150;2023-03-03T08:18:44;31.08;;;19.58;;
41693;SDS011;27377;50.666;9.150;2023-03-03T08:21:14;31.08;;;20.05;;
41693;SDS011;27377;50.666;9.150;2023-03-03T08:23:47;31.57;;;19.63;;
41693;SDS011;27377;50.666;9.150;2023-03-03T08:26:17;30.15;;;18.90;;
41693;SDS011;27377;50.666;9.150;2023-03-03T08:28:47;29.53;;;18.77;;
41693;SDS011;27377;50.666;9.150;2023-03-03T08:31:12;31.17;;;19.60;;
41693;SDS011;27377;50.666;9.150;2023-03-03T08:33:38;31.35;;;19.50;;
41693;SDS011;27377;50.666;9.150;2023-03-03T08:36:04;31.67;;;19.30;;
41693;SDS011;27377;50.666;9.150;2023-03-03T08:38:31;29.83;;;19.05;;
41693;SDS011;27377;50.666;9.150;2023-03-03T08:40:56;28.23;;;18.00;;
41693;SDS011;27377;50.666;9.150;2023-03-03T08:43:22;28.70;;;17.97;;
41693;SDS011;27377;50.666;9.150;2023-03-03T08:45:49;29.60;;;18.85;;
41693;SDS011;27377;50.666;9.150;2023-03-03T08:48:16;28.73;;;17.70;;
41693;SDS011;27377;50.666;9.150;2023-03-03T08:50:42;29.05;;;17.65;;
41693;SDS011;27377;50.666;9.150;2023-03-03T08:53:08;30.60;;;18.30;;
41693;SDS011;27377;50.666;9.150;2023-03-03T08:55:35;28.30;;;17.67;;
41693;SDS011;27377;50.666;9.150;2023-03-03T08:58:00;28.85;;;17.17;;
41693;SDS011;27377;50.666;9.150;2023-03-03T09:00:26;27.90;;;16.88;;
41693;SDS011;27377;50.666;9.150;2023-03-03T09:02:52;28.45;;;17.67;;
41693;SDS011;27377;50.666;9.150;2023-03-03T09:05:18;27.85;;;16.77;;
41693;SDS011;27377;50.666;9.150;2023-03-03T09:07:45;28.10;;;16.98;;
41693;SDS011;27377;50.666;9.150;2023-03-03T09:10:12;24.83;;;15.80;;
41693;SDS011;27377;50.666;9.150;2023-03-03T09:12:45;26.10;;;16.17;;
41693;SDS011;27377;50.666;9.150;2023-03-03T09:15:25;25.13;;;15.93;;
41693;SDS011;27377;50.666;9.150;2023-03-03T09:17:53;25.88;;;16.15;;
41693;SDS011;27377;50.666;9.150;2023-03-03T09:23:22;25.77;;;15.48;;
41693;SDS011;27377;50.666;9.150;2023-03-03T09:26:22;24.37;;;14.97;;
41693;SDS011;27377;50.666;9.150;2023-03-03T09:29:34;26.30;;;15.95;;
41693;SDS011;27377;50.666;9.150;2023-03-03T09:34:45;27.25;;;15.95;;
41693;SDS011;27377;50.666;9.150;2023-03-03T09:37:17;28.08;;;15.07;;
41693;SDS011;27377;50.666;9.150;2023-03-03T09:39:47;26.95;;;15.38;;
41693;SDS011;27377;50.666;9.150;2023-03-03T09:45:22;24.05;;;14.73;;
41693;SDS011;27377;50.666;9.150;2023-03-03T09:47:59;24.15;;;14.77;;
41693;SDS011;27377;50.666;9.150;2023-03-03T09:53:18;23.87;;;14.60;;
41693;SDS011;27377;50.666;9.150;2023-03-03T09:56:24;22.83;;;14.45;;
41693;SDS011;27377;50.666;9.150;2023-03-03T09:58:55;25.88;;;15.88;;
41693;SDS011;27377;50.666;9.150;2023-03-03T10:04:24;26.48;;;16.35;;
41693;SDS011;27377;50.666;9.150;2023-03-03T10:07:17;27.08;;;16.83;;
41693;SDS011;27377;50.666;9.150;2023-03-03T10:15:29;28.42;;;16.25;;
41693;SDS011;27377;50.666;9.150;2023-03-03T10:21:28;28.05;;;16.75;;
41693;SDS011;27377;50.666;9.150;2023-03-03T10:29:30;25.40;;;15.50;;
41693;SDS011;27377;50.666;9.150;2023-03-03T10:38:12;25.23;;;15.35;;
41693;SDS011;27377;50.666;9.150;2023-03-03T10:41:09;24.42;;;14.77;;
41693;SDS011;27377;50.666;9.150;2023-03-03T10:49:30;27.48;;;16.23;;
41693;SDS011;27377;50.666;9.150;2023-03-03T10:54:54;23.67;;;14.77;;
41693;SDS011;27377;50.666;9.150;2023-03-03T10:57:44;28.87;;;15.13;;
41693;SDS011;27377;50.666;9.150;2023-03-03T11:05:55;23.30;;;14.32;;
41693;SDS011;27377;50.666;9.150;2023-03-03T11:08:29;24.73;;;14.60;;
41693;SDS011;27377;50.666;9.150;2023-03-03T11:11:24;23.73;;;14.35;;
41693;SDS011;27377;50.666;9.150;2023-03-03T11:14:02;24.98;;;14.35;;
41693;SDS011;27377;50.666;9.150;2023-03-03T11:16:59;25.58;;;15.00;;
41693;SDS011;27377;50.666;9.150;2023-03-03T11:19:33;23.55;;;13.82;;
41693;SDS011;27377;50.666;9.150;2023-03-03T11:25:02;24.00;;;13.68;;
41693;SDS011;27377;50.666;9.150;2023-03-03T11:28:12;23.50;;;13.90;;
41693;SDS011;27377;50.666;9.150;2023-03-03T11:38:53;22.80;;;13.32;;
41693;SDS011;27377;50.666;9.150;2023-03-03T11:41:29;23.65;;;13.90;;
41693;SDS011;27377;50.666;9.150;2023-03-03T11:44:20;21.88;;;13.45;;
41693;SDS011;27377;50.666;9.150;2023-03-03T11:47:38;21.63;;;12.87;;
41693;SDS011;27377;50.666;9.150;2023-03-03T11:50:02;21.92;;;13.45;;
41693;SDS011;27377;50.666;9.150;2023-03-03T11:55:31;23.13;;;13.18;;
41693;SDS011;27377;50.666;9.150;2023-03-03T12:03:46;22.13;;;12.98;;
41693;SDS011;27377;50.666;9.150;2023-03-03T12:12:05;21.60;;;13.30;;
41693;SDS011;27377;50.666;9.150;2023-03-03T12:23:03;20.88;;;12.63;;
41693;SDS011;27377;50.666;9.150;2023-03-03T12:28:18;21.02;;;12.23;;
41693;SDS011;27377;50.666;9.150;2023-03-03T12:33:55;21.35;;;13.20;;
41693;SDS011;27377;50.666;9.150;2023-03-03T12:36:31;20.20;;;12.07;;
41693;SDS011;27377;50.666;9.150;2023-03-03T12:41:57;21.03;;;12.63;;
41693;SDS011;27377;50.666;9.150;2023-03-03T12:47:26;19.33;;;11.85;;
41693;SDS011;27377;50.666;9.150;2023-03-03T12:58:08;19.40;;;11.90;;
41693;SDS011;27377;50.666;9.150;2023-03-03T13:17:37;18.83;;;11.98;;
41693;SDS011;27377;50.666;9.150;2023-03-03T13:23:16;20.35;;;12.23;;
41693;SDS011;27377;50.666;9.150;2023-03-03T13:26:07;19.60;;;12.18;;
41693;SDS011;27377;50.666;9.150;2023-03-03T13:28:54;18.98;;;12.35;;
41693;SDS011;27377;50.666;9.150;2023-03-03T13:31:38;20.77;;;12.53;;
41693;SDS011;27377;50.666;9.150;2023-03-03T13:34:07;20.00;;;12.45;;
41693;SDS011;27377;50.666;9.150;2023-03-03T13:36:54;20.83;;;11.30;;
41693;SDS011;27377;50.666;9.150;2023-03-03T13:39:26;19.33;;;12.18;;
41693;SDS011;27377;50.666;9.150;2023-03-03T13:42:00;18.40;;;11.30;;
41693;SDS011;27377;50.666;9.150;2023-03-03T13:44:35;19.52;;;12.38;;
41693;SDS011;27377;50.666;9.150;2023-03-03T13:47:15;18.65;;;11.65;;
41693;SDS011;27377;50.666;9.150;2023-03-03T13:50:01;18.33;;;11.82;;
41693;SDS011;27377;50.666;9.150;2023-03-03T13:55:25;19.45;;;11.80;;
41693;SDS011;27377;50.666;9.150;2023-03-03T13:57:59;19.10;;;12.27;;
41693;SDS011;27377;50.666;9.150;2023-03-03T14:03:58;17.65;;;11.27;;
41693;SDS011;27377;50.666;9.150;2023-03-03T14:06:26;18.75;;;11.50;;
41693;SDS011;27377;50.666;9.150;2023-03-03T14:08:54;17.42;;;11.48;;
41693;SDS011;27377;50.666;9.150;2023-03-03T14:14:56;19.08;;;11.65;;
41693;SDS011;27377;50.666;9.150;2023-03-03T14:17:32;17.73;;;11.02;;
41693;SDS011;27377;50.666;9.150;2023-03-03T14:23:31;17.25;;;11.07;;
41693;SDS011;27377;50.666;9.150;2023-03-03T14:28:28;17.67;;;11.47;;
41693;SDS011;27377;50.666;9.150;2023-03-03T14:36:47;18.13;;;11.27;;
41693;SDS011;27377;50.666;9.150;2023-03-03T14:39:39;18.20;;;11.55;;
41693;SDS011;27377;50.666;9.150;2023-03-03T14:44:56;17.63;;;11.18;;
41693;SDS011;27377;50.666;9.150;2023-03-03T14:47:25;16.35;;;11.10;;
41693;SDS011;27377;50.666;9.150;2023-03-03T14:49:52;18.15;;;11.60;;
41693;SDS011;27377;50.666;9.150;2023-03-03T14:52:20;16.60;;;11.27;;
41693;SDS011;27377;50.666;9.150;2023-03-03T14:54:49;16.80;;;11.52;;
41693;SDS011;27377;50.666;9.150;2023-03-03T14:57:21;16.63;;;11.40;;
41693;SDS011;27377;50.666;9.150;2023-03-03T15:05:23;15.95;;;11.15;;
41693;SDS011;27377;50.666;9.150;2023-03-03T15:07:54;17.55;;;11.38;;
41693;SDS011;27377;50.666;9.150;2023-03-03T15:10:28;18.05;;;11.45;;
41693;SDS011;27377;50.666;9.150;2023-03-03T15:12:55;17.50;;;11.50;;
41693;SDS011;27377;50.666;9.150;2023-03-03T15:15:23;15.80;;;10.83;;
41693;SDS011;27377;50.666;9.150;2023-03-03T15:20:37;15.70;;;10.65;;
41693;SDS011;27377;50.666;9.150;2023-03-03T15:26:01;17.15;;;11.15;;
41693;SDS011;27377;50.666;9.150;2023-03-03T15:34:01;17.58;;;10.63;;
41693;SDS011;27377;50.666;9.150;2023-03-03T15:42:32;15.82;;;10.50;;
41693;SDS011;27377;50.666;9.150;2023-03-03T15:45:16;15.15;;;10.65;;
41693;SDS011;27377;50.666;9.150;2023-03-03T15:50:44;16.15;;;10.68;;
41693;SDS011;27377;50.666;9.150;2023-03-03T16:04:46;15.30;;;10.13;;
41693;SDS011;27377;50.666;9.150;2023-03-03T16:15:47;16.10;;;10.35;;
41693;SDS011;27377;50.666;9.150;2023-03-03T16:18:32;15.75;;;9.90;;
41693;SDS011;27377;50.666;9.150;2023-03-03T16:21:17;15.10;;;10.10;;
41693;SDS011;27377;50.666;9.150;2023-03-03T16:23:55;16.10;;;10.52;;
41693;SDS011;27377;50.666;9.150;2023-03-03T16:31:46;15.65;;;10.20;;
41693;SDS011;27377;50.666;9.150;2023-03-03T16:37:03;14.13;;;9.67;;
41693;SDS011;27377;50.666;9.150;2023-03-03T16:39:58;14.13;;;10.00;;
41693;SDS011;27377;50.666;9.150;2023-03-03T16:42:27;14.63;;;10.03;;
41693;SDS011;27377;50.666;9.150;2023-03-03T16:45:05;15.23;;;9.82;;
41693;SDS011;27377;50.666;9.150;2023-03-03T16:47:52;15.10;;;10.10;;
41693;SDS011;27377;50.666;9.150;2023-03-03T16:53:09;14.45;;;9.75;;
41693;SDS011;27377;50.666;9.150;2023-03-03T16:56:05;15.77;;;9.85;;
41693;SDS011;27377;50.666;9.150;2023-03-03T16:58:57;14.43;;;9.95;;
41693;SDS011;27377;50.666;9.150;2023-03-03T17:01:57;14.03;;;9.87;;
41693;SDS011;27377;50.666;9.150;2023-03-03T17:07:08;16.13;;;9.63;;
41693;SDS011;27377;50.666;9.150;2023-03-03T17:09:52;14.93;;;9.23;;
41693;SDS011;27377;50.666;9.150;2023-03-03T17:15:35;14.10;;;9.60;;
41693;SDS011;27377;50.666;9.150;2023-03-03T17:20:50;15.25;;;9.88;;
41693;SDS011;27377;50.666;9.150;2023-03-03T17:23:44;15.60;;;10.05;;
41693;SDS011;27377;50.666;9.150;2023-03-03T17:34:16;16.77;;;10.27;;
41693;SDS011;27377;50.666;9.150;2023-03-03T17:37:09;15.80;;;10.38;;
41693;SDS011;27377;50.666;9.150;2023-03-03T17:45:16;16.42;;;10.63;;
41693;SDS011;27377;50.666;9.150;2023-03-03T18:04:20;15.98;;;10.80;;
41693;SDS011;27377;50.666;9.150;2023-03-03T18:10:00;17.02;;;11.35;;
41693;SDS011;27377;50.666;9.150;2023-03-03T18:26:49;18.43;;;11.07;;
41693;SDS011;27377;50.666;9.150;2023-03-03T18:29:17;16.17;;;11.03;;
41693;SDS011;27377;50.666;9.150;2023-03-03T18:36:55;16.23;;;10.50;;
41693;SDS011;27377;50.666;9.150;2023-03-03T18:39:35;16.00;;;10.55;;
41693;SDS011;27377;50.666;9.150;2023-03-03T18:44:40;16.73;;;10.70;;
41693;SDS011;27377;50.666;9.150;2023-03-03T18:47:07;16.63;;;10.52;;
41693;SDS011;27377;50.666;9.150;2023-03-03T18:52:30;16.10;;;10.20;;
41693;SDS011;27377;50.666;9.150;2023-03-03T18:55:02;17.13;;;11.10;;
41693;SDS011;27377;50.666;9.150;2023-03-03T19:00:55;15.35;;;10.40;;
41693;SDS011;27377;50.666;9.150;2023-03-03T19:03:31;19.35;;;10.90;;
41693;SDS011;27377;50.666;9.150;2023-03-03T19:05:59;16.55;;;10.35;;
41693;SDS011;27377;50.666;9.150;2023-03-03T19:16:49;16.17;;;10.57;;
41693;SDS011;27377;50.666;9.150;2023-03-03T19:19:17;17.33;;;11.23;;
41693;SDS011;27377;50.666;9.150;2023-03-03T19:21:46;17.90;;;10.95;;
41693;SDS011;27377;50.666;9.150;2023-03-03T19:26:55;17.30;;;10.40;;
41693;SDS011;27377;50.666;9.150;2023-03-03T19:35:17;16.45;;;10.05;;
41693;SDS011;27377;50.666;9.150;2023-03-03T19:38:14;17.70;;;11.05;;
41693;SDS011;27377;50.666;9.150;2023-03-03T19:43:46;17.13;;;10.60;;
41693;SDS011;27377;50.666;9.150;2023-03-03T19:46:24;17.27;;;10.57;;
41693;SDS011;27377;50.666;9.150;2023-03-03T19:51:58;17.40;;;10.98;;
41693;SDS011;27377;50.666;9.150;2023-03-03T19:54:42;19.15;;;11.02;;
41693;SDS011;27377;50.666;9.150;2023-03-03T19:57:19;17.93;;;10.57;;
41693;SDS011;27377;50.666;9.150;2023-03-03T19:59:57;19.23;;;11.70;;
41693;SDS011;27377;50.666;9.150;2023-03-03T20:02:46;17.80;;;10.70;;
41693;SDS011;27377;50.666;9.150;2023-03-03T20:08:39;17.27;;;10.75;;
41693;SDS011;27377;50.666;9.150;2023-03-03T20:11:25;18.23;;;11.30;;
41693;SDS011;27377;50.666;9.150;2023-03-03T20:16:51;17.47;;;10.80;;
41693;SDS011;27377;50.666;9.150;2023-03-03T20:22:16;18.48;;;11.52;;
41693;SDS011;27377;50.666;9.150;2023-03-03T20:24:56;20.93;;;12.13;;